Charles Alfred — WYU9726 — position and weather

sailwx.info

Track history (hours):
 
Tides and Currents Weather Stations Pressure Air Temp Water Temp Dewpoint Dewpoint Depression Visibility Wind Speed Wind Dir Waves Ship Positions

Charles Alfred

Owner: CHARLES ALFRED INC, HACKBERRY, LA. More information available from US FCC via Universal Licensing System and Coast Guard Vessel Documentation Center.

Last reported at 2017-Nov-20 00:30 UTC. Time now 2017-Nov-21 23:14 UTC.
Position N 30°04' W 093°21'.

Length 16 m; draft 1 m.

Type: Towing. MMSI: 366973420.

Date/timePositionNaut miles runAvg speedWind from/ knotsBaromVisibWave heightAir tempDewpointWater temp
2017-Nov-20 00:30N 30°04' W 093°21'0 0.0
2017-Nov-20 00:00N 30°04' W 093°21'2 3.8
2017-Nov-19 23:30N 30°05' W 093°20'0 0.0
2017-Nov-19 23:00N 30°05' W 093°20'2 3.8
2017-Nov-19 22:30N 30°06' W 093°18'0 0.0
2017-Nov-19 22:00N 30°06' W 093°18'3 5.2
2017-Nov-19 21:30N 30°04' W 093°20'1 2.2
2017-Nov-19 21:00N 30°04' W 093°21'0 0.0
2017-Nov-19 20:30N 30°04' W 093°21'0 0.0
2017-Nov-19 20:00N 30°04' W 093°21'0 0.0
2017-Nov-19 19:30N 30°04' W 093°21'0 0.0
2017-Nov-19 19:00N 30°04' W 093°21'0 0.0
2017-Nov-19 18:30N 30°04' W 093°21'0 0.0
2017-Nov-19 18:00N 30°04' W 093°21'0 0.0
2017-Nov-19 17:30N 30°04' W 093°21'0 0.0
2017-Nov-19 17:00N 30°04' W 093°21'0 0.0
2017-Nov-19 16:30N 30°04' W 093°21'0 0.0
2017-Nov-19 16:00N 30°04' W 093°21'0 0.0
2017-Nov-19 15:30N 30°04' W 093°21'0 0.0
2017-Nov-19 15:00N 30°04' W 093°21'0 0.0
2017-Nov-19 14:30N 30°04' W 093°21'0 0.0
2017-Nov-19 14:00N 30°04' W 093°21'0 0.0
2017-Nov-19 13:30N 30°04' W 093°21'0 0.0
2017-Nov-19 13:00N 30°04' W 093°21'0 0.0
2017-Nov-19 12:30N 30°04' W 093°21'0 0.0
2017-Nov-19 12:01N 30°04' W 093°21'0 0.0
2017-Nov-19 11:31N 30°04' W 093°21'0 0.0
2017-Nov-19 11:00N 30°04' W 093°21'0 0.0
2017-Nov-19 10:30N 30°04' W 093°21'0 0.0
2017-Nov-19 10:01N 30°04' W 093°21'0 0.0
2017-Nov-19 09:31N 30°04' W 093°21'0 0.0
2017-Nov-19 09:01N 30°04' W 093°21'0 0.0
2017-Nov-19 08:30N 30°04' W 093°21'0 0.0
2017-Nov-19 08:00N 30°04' W 093°21'0 0.0
2017-Nov-19 07:31N 30°04' W 093°21'0 0.0
2017-Nov-19 07:01N 30°04' W 093°21'0 0.0
2017-Nov-19 06:30N 30°04' W 093°21'0 0.0
2017-Nov-19 06:01N 30°04' W 093°21'0 0.0
2017-Nov-19 05:30N 30°04' W 093°21'0 0.0
2017-Nov-19 05:00N 30°04' W 093°21'0 0.0
2017-Nov-19 04:31N 30°04' W 093°21'0 0.0
2017-Nov-19 04:00N 30°04' W 093°21'0 0.0
2017-Nov-19 03:30N 30°04' W 093°21'0 0.0
2017-Nov-19 03:00N 30°04' W 093°21'0 0.0
2017-Nov-19 02:30N 30°04' W 093°21'0 0.2
2017-Nov-19 02:00N 30°04' W 093°21'0 0.0
2017-Nov-19 01:30N 30°04' W 093°21'0 0.8
2017-Nov-19 01:01N 30°04' W 093°22'2 4.5
2017-Nov-19 00:31N 30°04' W 093°24'3 5.2
2017-Nov-19 00:00N 30°04' W 093°27'3 5.2
2017-Nov-18 23:30N 30°04' W 093°30'  
2017-Nov-15 10:41N 30°04' W 093°35'1 6.3
2017-Nov-15 10:30N 30°04' W 093°34'2 4.5
2017-Nov-15 10:00N 30°04' W 093°31'0 0.0
2017-Nov-15 09:30N 30°04' W 093°31'0 0.0
2017-Nov-15 09:00N 30°04' W 093°31'0 0.0
2017-Nov-15 08:30N 30°04' W 093°31'0 0.0
2017-Nov-15 08:00N 30°04' W 093°31'0 0.2
2017-Nov-15 07:30N 30°04' W 093°31'2 3.5
2017-Nov-15 07:00N 30°04' W 093°29'0 0.0
2017-Nov-15 06:30N 30°04' W 093°29'2 4.3
2017-Nov-15 06:00N 30°04' W 093°27'3 5.7
2017-Nov-15 05:30N 30°04' W 093°23'2 3.1
2017-Nov-15 05:00N 30°04' W 093°22'2 4.8
2017-Nov-15 04:30N 30°05' W 093°20'3 6.9
2017-Nov-15 04:00N 30°09' W 093°20'1 1.2
2017-Nov-15 03:30N 30°09' W 093°20'0 0.0
2017-Nov-15 03:00N 30°09' W 093°20'0 0.0
2017-Nov-15 02:30N 30°09' W 093°20'0 0.0
2017-Nov-15 02:00N 30°09' W 093°20'0 0.0
2017-Nov-15 01:30N 30°09' W 093°20'0 0.0
2017-Nov-15 01:00N 30°09' W 093°20'0 0.0
2017-Nov-15 00:30N 30°09' W 093°20'0 0.0
2017-Nov-15 00:00N 30°09' W 093°20'0 0.5
2017-Nov-14 23:30N 30°09' W 093°20'3 6.7
2017-Nov-14 23:00N 30°06' W 093°20'1 1.7
2017-Nov-14 22:30N 30°05' W 093°20'0 0.0
2017-Nov-14 22:00N 30°05' W 093°20'0 0.0
2017-Nov-14 21:30N 30°05' W 093°20'0 0.0
2017-Nov-14 21:00N 30°05' W 093°20'0 0.0
2017-Nov-14 20:30N 30°05' W 093°20'2 4.3
2017-Nov-14 20:00N 30°04' W 093°22'0 0.6
2017-Nov-14 19:30N 30°04' W 093°21'0 0.1
2017-Nov-14 19:00N 30°04' W 093°21'0 0.0
2017-Nov-14 18:30N 30°04' W 093°21'0 0.0
2017-Nov-14 18:00N 30°04' W 093°21'0 0.0
2017-Nov-14 17:30N 30°04' W 093°21'0 0.0
2017-Nov-14 17:00N 30°04' W 093°21'0 0.6
2017-Nov-14 16:30N 30°04' W 093°21'1 1.4
2017-Nov-14 16:00N 30°04' W 093°20'0 0.1
2017-Nov-14 15:30N 30°04' W 093°20'2 3.2
2017-Nov-14 15:00N 30°06' W 093°20'3 7.0
2017-Nov-14 14:30N 30°09' W 093°20'0 0.0
2017-Nov-14 13:59N 30°09' W 093°20'0 0.0
2017-Nov-14 13:30N 30°09' W 093°20'0 0.0
2017-Nov-14 13:00N 30°09' W 093°20'0 0.0
2017-Nov-14 12:30N 30°09' W 093°20'5 0.1
2017-Nov-13 01:04N 30°04' W 093°21'0 2.7
2017-Nov-13 00:59N 30°04' W 093°21'0 1.0
2017-Nov-13 00:29N 30°04' W 093°20'0 0.0
2017-Nov-12 23:59N 30°04' W 093°20'0 0.0
2017-Nov-12 23:29N 30°04' W 093°20'0 0.0
2017-Nov-12 22:59N 30°04' W 093°20'0 0.0
2017-Nov-12 22:29N 30°04' W 093°20'0 0.8
2017-Nov-12 21:59N 30°05' W 093°20'2 4.0
2017-Nov-12 21:29N 30°06' W 093°18'0 0.0
2017-Nov-12 20:59N 30°06' W 093°18'0 0.0
2017-Nov-12 20:29N 30°06' W 093°18'0 0.0
2017-Nov-12 19:59N 30°06' W 093°18'0 0.0
2017-Nov-12 19:29N 30°06' W 093°18'0 0.0
2017-Nov-12 18:57N 30°06' W 093°18'0 0.0
2017-Nov-12 17:38N 30°06' W 093°18'0 0.1
2017-Nov-12 17:27N 30°06' W 093°18'0 0.1
2017-Nov-12 16:59N 30°06' W 093°18'1 2.7
2017-Nov-12 16:30N 30°05' W 093°20'2 4.4
2017-Nov-12 15:59N 30°04' W 093°21'0 0.0
2017-Nov-12 15:29N 30°04' W 093°21'0 0.0
2017-Nov-12 14:59N 30°04' W 093°21'0 0.0
2017-Nov-12 14:27N 30°04' W 093°21'0 0.0
2017-Nov-12 13:55N 30°04' W 093°21'0 0.1
2017-Nov-12 13:27N 30°04' W 093°21'0 0.9
2017-Nov-12 12:59N 30°04' W 093°21'2 3.5
2017-Nov-12 12:29N 30°05' W 093°20'  
Track history (hours):
 
Tides and Currents Weather Stations Pressure Air Temp Water Temp Dewpoint Dewpoint Depression Visibility Wind Speed Wind Dir Waves Ship Positions

Charles Alfred

Owner: CHARLES ALFRED INC, HACKBERRY, LA. More information available from US FCC via Universal Licensing System and Coast Guard Vessel Documentation Center.

Last reported at 2017-Nov-20 00:30 UTC. Time now 2017-Nov-21 23:14 UTC.
Position N 30°04' W 093°21'.

Length 16 m; draft 1 m.

Type: Towing. MMSI: 366973420.

Date/timePositionNaut miles runAvg speedWind from/ knotsBaromVisibWave heightAir tempDewpointWater temp
2017-Nov-20 00:30N 30°04' W 093°21'0 0.0
2017-Nov-20 00:00N 30°04' W 093°21'2 3.8
2017-Nov-19 23:30N 30°05' W 093°20'0 0.0
2017-Nov-19 23:00N 30°05' W 093°20'2 3.8
2017-Nov-19 22:30N 30°06' W 093°18'0 0.0
2017-Nov-19 22:00N 30°06' W 093°18'3 5.2
2017-Nov-19 21:30N 30°04' W 093°20'1 2.2
2017-Nov-19 21:00N 30°04' W 093°21'0 0.0
2017-Nov-19 20:30N 30°04' W 093°21'0 0.0
2017-Nov-19 20:00N 30°04' W 093°21'0 0.0
2017-Nov-19 19:30N 30°04' W 093°21'0 0.0
2017-Nov-19 19:00N 30°04' W 093°21'0 0.0
2017-Nov-19 18:30N 30°04' W 093°21'0 0.0
2017-Nov-19 18:00N 30°04' W 093°21'0 0.0
2017-Nov-19 17:30N 30°04' W 093°21'0 0.0
2017-Nov-19 17:00N 30°04' W 093°21'0 0.0
2017-Nov-19 16:30N 30°04' W 093°21'0 0.0
2017-Nov-19 16:00N 30°04' W 093°21'0 0.0
2017-Nov-19 15:30N 30°04' W 093°21'0 0.0
2017-Nov-19 15:00N 30°04' W 093°21'0 0.0
2017-Nov-19 14:30N 30°04' W 093°21'0 0.0
2017-Nov-19 14:00N 30°04' W 093°21'0 0.0
2017-Nov-19 13:30N 30°04' W 093°21'0 0.0
2017-Nov-19 13:00N 30°04' W 093°21'0 0.0
2017-Nov-19 12:30N 30°04' W 093°21'0 0.0
2017-Nov-19 12:01N 30°04' W 093°21'0 0.0
2017-Nov-19 11:31N 30°04' W 093°21'0 0.0
2017-Nov-19 11:00N 30°04' W 093°21'0 0.0
2017-Nov-19 10:30N 30°04' W 093°21'0 0.0
2017-Nov-19 10:01N 30°04' W 093°21'0 0.0
2017-Nov-19 09:31N 30°04' W 093°21'0 0.0
2017-Nov-19 09:01N 30°04' W 093°21'0 0.0
2017-Nov-19 08:30N 30°04' W 093°21'0 0.0
2017-Nov-19 08:00N 30°04' W 093°21'0 0.0
2017-Nov-19 07:31N 30°04' W 093°21'0 0.0
2017-Nov-19 07:01N 30°04' W 093°21'0 0.0
2017-Nov-19 06:30N 30°04' W 093°21'0 0.0
2017-Nov-19 06:01N 30°04' W 093°21'0 0.0
2017-Nov-19 05:30N 30°04' W 093°21'0 0.0
2017-Nov-19 05:00N 30°04' W 093°21'0 0.0
2017-Nov-19 04:31N 30°04' W 093°21'0 0.0
2017-Nov-19 04:00N 30°04' W 093°21'0 0.0
2017-Nov-19 03:30N 30°04' W 093°21'0 0.0
2017-Nov-19 03:00N 30°04' W 093°21'0 0.0
2017-Nov-19 02:30N 30°04' W 093°21'0 0.2
2017-Nov-19 02:00N 30°04' W 093°21'0 0.0
2017-Nov-19 01:30N 30°04' W 093°21'0 0.8
2017-Nov-19 01:01N 30°04' W 093°22'2 4.5
2017-Nov-19 00:31N 30°04' W 093°24'3 5.2
2017-Nov-19 00:00N 30°04' W 093°27'3 5.2
2017-Nov-18 23:30N 30°04' W 093°30'  
2017-Nov-15 10:41N 30°04' W 093°35'1 6.3
2017-Nov-15 10:30N 30°04' W 093°34'2 4.5
2017-Nov-15 10:00N 30°04' W 093°31'0 0.0
2017-Nov-15 09:30N 30°04' W 093°31'0 0.0
2017-Nov-15 09:00N 30°04' W 093°31'0 0.0
2017-Nov-15 08:30N 30°04' W 093°31'0 0.0
2017-Nov-15 08:00N 30°04' W 093°31'0 0.2
2017-Nov-15 07:30N 30°04' W 093°31'2 3.5
2017-Nov-15 07:00N 30°04' W 093°29'0 0.0
2017-Nov-15 06:30N 30°04' W 093°29'2 4.3
2017-Nov-15 06:00N 30°04' W 093°27'3 5.7
2017-Nov-15 05:30N 30°04' W 093°23'2 3.1
2017-Nov-15 05:00N 30°04' W 093°22'2 4.8
2017-Nov-15 04:30N 30°05' W 093°20'3 6.9
2017-Nov-15 04:00N 30°09' W 093°20'1 1.2
2017-Nov-15 03:30N 30°09' W 093°20'0 0.0
2017-Nov-15 03:00N 30°09' W 093°20'0 0.0
2017-Nov-15 02:30N 30°09' W 093°20'0 0.0
2017-Nov-15 02:00N 30°09' W 093°20'0 0.0
2017-Nov-15 01:30N 30°09' W 093°20'0 0.0
2017-Nov-15 01:00N 30°09' W 093°20'0 0.0
2017-Nov-15 00:30N 30°09' W 093°20'0 0.0
2017-Nov-15 00:00N 30°09' W 093°20'0 0.5
2017-Nov-14 23:30N 30°09' W 093°20'3 6.7
2017-Nov-14 23:00N 30°06' W 093°20'1 1.7
2017-Nov-14 22:30N 30°05' W 093°20'0 0.0
2017-Nov-14 22:00N 30°05' W 093°20'0 0.0
2017-Nov-14 21:30N 30°05' W 093°20'0 0.0
2017-Nov-14 21:00N 30°05' W 093°20'0 0.0
2017-Nov-14 20:30N 30°05' W 093°20'2 4.3
2017-Nov-14 20:00N 30°04' W 093°22'0 0.6
2017-Nov-14 19:30N 30°04' W 093°21'0 0.1
2017-Nov-14 19:00N 30°04' W 093°21'0 0.0
2017-Nov-14 18:30N 30°04' W 093°21'0 0.0
2017-Nov-14 18:00N 30°04' W 093°21'0 0.0
2017-Nov-14 17:30N 30°04' W 093°21'0 0.0
2017-Nov-14 17:00N 30°04' W 093°21'0 0.6
2017-Nov-14 16:30N 30°04' W 093°21'1 1.4
2017-Nov-14 16:00N 30°04' W 093°20'0 0.1
2017-Nov-14 15:30N 30°04' W 093°20'2 3.2
2017-Nov-14 15:00N 30°06' W 093°20'3 7.0
2017-Nov-14 14:30N 30°09' W 093°20'0 0.0
2017-Nov-14 13:59N 30°09' W 093°20'0 0.0
2017-Nov-14 13:30N 30°09' W 093°20'0 0.0
2017-Nov-14 13:00N 30°09' W 093°20'0 0.0
2017-Nov-14 12:30N 30°09' W 093°20'5 0.1
2017-Nov-13 01:04N 30°04' W 093°21'0 2.7
2017-Nov-13 00:59N 30°04' W 093°21'0 1.0
2017-Nov-13 00:29N 30°04' W 093°20'0 0.0
2017-Nov-12 23:59N 30°04' W 093°20'0 0.0
2017-Nov-12 23:29N 30°04' W 093°20'0 0.0
2017-Nov-12 22:59N 30°04' W 093°20'0 0.0
2017-Nov-12 22:29N 30°04' W 093°20'0 0.8
2017-Nov-12 21:59N 30°05' W 093°20'2 4.0
2017-Nov-12 21:29N 30°06' W 093°18'0 0.0
2017-Nov-12 20:59N 30°06' W 093°18'0 0.0
2017-Nov-12 20:29N 30°06' W 093°18'0 0.0
2017-Nov-12 19:59N 30°06' W 093°18'0 0.0
2017-Nov-12 19:29N 30°06' W 093°18'0 0.0
2017-Nov-12 18:57N 30°06' W 093°18'0 0.0
2017-Nov-12 17:38N 30°06' W 093°18'0 0.1
2017-Nov-12 17:27N 30°06' W 093°18'0 0.1
2017-Nov-12 16:59N 30°06' W 093°18'1 2.7
2017-Nov-12 16:30N 30°05' W 093°20'2 4.4
2017-Nov-12 15:59N 30°04' W 093°21'0 0.0
2017-Nov-12 15:29N 30°04' W 093°21'0 0.0
2017-Nov-12 14:59N 30°04' W 093°21'0 0.0
2017-Nov-12 14:27N 30°04' W 093°21'0 0.0
2017-Nov-12 13:55N 30°04' W 093°21'0 0.1
2017-Nov-12 13:27N 30°04' W 093°21'0 0.9
2017-Nov-12 12:59N 30°04' W 093°21'2 3.5
2017-Nov-12 12:29N 30°05' W 093°20'  

Dump ship's entire track history